createdAt,value
2019-04-21T00:00:38.336Z,0
2019-04-21T00:01:52.569Z,0
2019-04-21T00:03:06.772Z,0
2019-04-21T00:04:20.972Z,0
2019-04-21T00:05:35.197Z,0
2019-04-21T00:06:49.365Z,0
2019-04-21T00:08:03.460Z,0
2019-04-21T00:09:17.638Z,0
2019-04-21T00:10:31.914Z,0
2019-04-21T00:11:46.081Z,0
2019-04-21T00:13:00.236Z,0
2019-04-21T00:14:15.894Z,0
2019-04-21T00:15:28.603Z,0
2019-04-21T00:16:42.794Z,0
2019-04-21T00:17:57.157Z,0
2019-04-21T00:19:11.200Z,0
2019-04-21T00:20:25.480Z,0
2019-04-21T00:21:39.666Z,0
2019-04-21T00:22:54.020Z,0
2019-04-21T00:24:07.993Z,0
2019-04-21T00:25:22.322Z,0
2019-04-21T00:26:36.452Z,0
2019-04-21T00:27:50.710Z,0
2019-04-21T00:29:04.971Z,0
2019-04-21T00:30:19.039Z,0
2019-04-21T00:31:33.160Z,0
2019-04-21T00:32:47.338Z,0
2019-04-21T00:34:01.577Z,0
2019-04-21T00:35:15.715Z,0
2019-04-21T00:36:29.933Z,0
2019-04-21T00:37:44.125Z,0
2019-04-21T00:38:58.387Z,0
2019-04-21T00:40:12.948Z,0
2019-04-21T00:41:26.687Z,0
2019-04-21T00:42:40.912Z,0
2019-04-21T00:43:55.080Z,0
2019-04-21T00:45:09.318Z,0
2019-04-21T00:46:23.497Z,0
2019-04-21T00:47:37.684Z,0
2019-04-21T00:48:51.969Z,0
2019-04-21T00:50:06.162Z,0
2019-04-21T00:51:20.346Z,0
2019-04-21T00:52:34.449Z,0
2019-04-21T00:53:48.757Z,0
2019-04-21T00:55:02.851Z,0
2019-04-21T00:57:31.245Z,0
2019-04-21T00:58:45.442Z,0
2019-04-21T00:59:59.660Z,0
2019-04-21T01:01:13.842Z,0
2019-04-21T01:02:28.049Z,0
2019-04-21T01:03:42.267Z,0
2019-04-21T01:04:56.415Z,0
2019-04-21T01:06:10.733Z,0
2019-04-21T01:07:25.028Z,0
2019-04-21T01:08:38.988Z,0
2019-04-21T01:09:53.184Z,0
2019-04-21T01:11:07.388Z,0
2019-04-21T01:12:21.613Z,0
2019-04-21T01:13:35.866Z,0
2019-04-21T01:14:49.943Z,0
2019-04-21T01:16:04.157Z,0
2019-04-21T01:17:18.397Z,0
2019-04-21T01:18:32.530Z,0
2019-04-21T01:19:46.731Z,0
2019-04-21T01:21:00.934Z,0
2019-04-21T01:22:15.098Z,0
2019-04-21T01:23:29.317Z,0
2019-04-21T01:24:43.497Z,0
2019-04-21T01:25:57.771Z,0
2019-04-21T01:27:11.898Z,0
2019-04-21T01:28:26.047Z,0
2019-04-21T01:29:40.236Z,0
2019-04-21T01:30:54.461Z,0
2019-04-21T01:32:08.654Z,0
2019-04-21T01:33:22.886Z,0
2019-04-21T01:34:36.997Z,0
2019-04-21T01:35:51.172Z,0
2019-04-21T01:37:05.570Z,0
2019-04-21T01:38:19.702Z,0
2019-04-21T01:39:33.779Z,0
2019-04-21T01:40:47.924Z,0
2019-04-21T01:42:02.142Z,0
2019-04-21T01:43:16.329Z,0
2019-04-21T01:44:30.571Z,0
2019-04-21T01:45:44.676Z,0
2019-04-21T01:46:58.946Z,0
2019-04-21T01:48:13.137Z,0
2019-04-21T01:49:27.231Z,0
2019-04-21T01:50:41.468Z,0
2019-04-21T01:51:55.639Z,0
2019-04-21T01:53:09.882Z,0
2019-04-21T01:54:24.019Z,0
2019-04-21T01:55:38.204Z,0
2019-04-21T01:56:52.463Z,0
2019-04-21T01:58:06.688Z,0
2019-04-21T01:59:20.764Z,0
2019-04-21T02:00:35.028Z,0
2019-04-21T02:01:49.185Z,0
2019-04-21T02:03:03.514Z,0
2019-04-21T02:04:17.563Z,0
2019-04-21T02:05:31.742Z,0
2019-04-21T02:06:45.911Z,0
2019-04-21T02:08:00.315Z,0
2019-04-21T02:09:14.317Z,0
2019-04-21T02:10:28.556Z,0
2019-04-21T02:11:42.653Z,0
2019-04-21T02:12:56.857Z,0
2019-04-21T02:14:11.197Z,0
2019-04-21T02:15:25.269Z,0
2019-04-21T02:16:39.499Z,0
2019-04-21T02:17:53.629Z,0
2019-04-21T02:19:07.815Z,0
2019-04-21T02:20:21.993Z,0
2019-04-21T02:21:36.211Z,0
2019-04-21T02:22:50.489Z,0
2019-04-21T02:24:04.593Z,0
2019-04-21T02:25:18.852Z,0
2019-04-21T02:26:38.368Z,0
2019-04-21T02:27:47.140Z,0
2019-04-21T02:29:01.328Z,0
2019-04-21T02:30:15.530Z,0
2019-04-21T02:31:29.713Z,0
2019-04-21T02:32:43.938Z,0
2019-04-21T02:33:58.180Z,0
2019-04-21T02:35:12.304Z,0
2019-04-21T02:36:26.462Z,0
2019-04-21T02:37:40.664Z,0
2019-04-21T02:38:54.876Z,0
2019-04-21T02:40:09.058Z,0
2019-04-21T02:41:23.231Z,0
2019-04-21T02:42:37.479Z,0
2019-04-21T02:43:51.704Z,0
2019-04-21T02:45:05.885Z,0
2019-04-21T02:46:20.004Z,0
2019-04-21T02:47:34.254Z,0
2019-04-21T02:48:48.453Z,0
2019-04-21T02:50:02.613Z,0
2019-04-21T02:51:16.931Z,0
2019-04-21T02:52:30.967Z,0
2019-04-21T02:53:45.294Z,0
2019-04-21T02:54:59.378Z,0
2019-04-21T02:56:13.687Z,0
2019-04-21T02:57:27.900Z,0
2019-04-21T02:58:42.025Z,0
2019-04-21T02:59:56.159Z,0
2019-04-21T03:01:10.389Z,0
2019-04-21T03:02:24.559Z,0
2019-04-21T03:03:38.779Z,0
2019-04-21T03:04:52.952Z,0
2019-04-21T03:06:07.133Z,0
2019-04-21T03:07:21.448Z,0
2019-04-21T03:08:35.627Z,0
2019-04-21T03:09:49.757Z,0
2019-04-21T03:11:03.940Z,0
2019-04-21T03:12:18.237Z,0
2019-04-21T03:13:32.349Z,0
2019-04-21T03:14:46.624Z,0
2019-04-21T03:16:00.725Z,0
2019-04-21T03:17:14.934Z,0
2019-04-21T03:18:29.134Z,0
2019-04-21T03:19:43.339Z,0
2019-04-21T03:20:57.511Z,0
2019-04-21T03:22:15.130Z,0
2019-04-21T03:23:25.909Z,0
2019-04-21T03:24:40.098Z,0
2019-04-21T03:25:57.972Z,0
2019-04-21T03:27:08.487Z,0
2019-04-21T03:28:22.724Z,0
2019-04-21T03:29:36.941Z,0
2019-04-21T03:30:51.084Z,0
2019-04-21T03:32:05.345Z,0
2019-04-21T03:33:19.481Z,0
2019-04-21T03:34:33.674Z,0
2019-04-21T03:35:47.888Z,0
2019-04-21T03:37:02.064Z,0
2019-04-21T03:38:16.243Z,0
2019-04-21T03:39:30.529Z,0
2019-04-21T03:40:44.680Z,0
2019-04-21T03:41:58.878Z,0
2019-04-21T03:43:17.415Z,0
2019-04-21T03:44:27.269Z,4
2019-04-21T03:45:41.681Z,0
2019-04-21T03:46:55.644Z,4
2019-04-21T03:48:09.889Z,4
2019-04-21T03:49:24.051Z,4
2019-04-21T03:50:38.237Z,8
2019-04-21T03:51:52.593Z,8
2019-04-21T03:53:06.654Z,8
2019-04-21T03:54:20.867Z,8
2019-04-21T03:55:35.061Z,12
2019-04-21T03:56:49.230Z,16
2019-04-21T03:58:03.448Z,20
2019-04-21T03:59:17.664Z,24
2019-04-21T04:00:31.868Z,24
2019-04-21T04:01:46.027Z,32
2019-04-21T04:03:00.306Z,36
2019-04-21T04:04:15.897Z,48
2019-04-21T04:05:28.700Z,60
2019-04-21T04:06:42.945Z,72
2019-04-21T04:07:57.016Z,84
2019-04-21T04:09:11.239Z,100
2019-04-21T04:10:25.409Z,116
2019-04-21T04:11:39.675Z,136
2019-04-21T04:12:53.813Z,160
2019-04-21T04:14:08.027Z,184
2019-04-21T04:15:22.219Z,212
2019-04-21T04:17:50.705Z,276
2019-04-21T04:19:04.821Z,316
2019-04-21T04:20:19.026Z,356
2019-04-21T04:21:33.241Z,400
2019-04-21T04:22:47.523Z,448
2019-04-21T04:24:01.663Z,496
2019-04-21T04:25:15.986Z,548
2019-04-21T04:26:30.053Z,608
2019-04-21T04:27:44.248Z,668
2019-04-21T04:28:58.477Z,724
2019-04-21T04:30:12.778Z,788
2019-04-21T04:31:27.058Z,856
2019-04-21T04:32:41.200Z,924
2019-04-21T04:33:55.283Z,992
2019-04-21T04:35:09.496Z,1060
2019-04-21T04:36:23.748Z,1140
2019-04-21T04:37:37.905Z,1212
2019-04-21T04:38:52.124Z,1288
2019-04-21T04:40:06.342Z,1372
2019-04-21T04:41:20.523Z,1448
2019-04-21T04:42:34.761Z,1532
2019-04-21T04:43:49.033Z,1616
2019-04-21T04:45:03.136Z,1696
2019-04-21T04:46:17.433Z,1780
2019-04-21T04:47:34.766Z,1864
2019-04-21T04:48:45.747Z,1948
2019-04-21T04:50:00.009Z,2032
2019-04-21T04:51:14.130Z,2116
2019-04-21T04:52:28.331Z,2196
2019-04-21T04:53:42.509Z,2276
2019-04-21T04:54:56.845Z,2364
2019-04-21T04:56:12.371Z,2460
2019-04-21T04:57:25.158Z,2544
2019-04-21T04:58:39.348Z,2636
2019-04-21T04:59:53.522Z,2736
2019-04-21T05:01:07.713Z,2860
2019-04-21T05:02:21.941Z,2980
2019-04-21T05:03:36.103Z,3104
2019-04-21T05:04:50.345Z,3160
2019-04-21T05:06:04.501Z,3192
2019-04-21T05:07:18.727Z,3288
2019-04-21T05:08:32.975Z,3428
2019-04-21T05:09:47.077Z,3612
2019-04-21T05:11:01.260Z,3736
2019-04-21T05:12:15.445Z,3828
2019-04-21T05:13:29.652Z,3920
2019-04-21T05:14:43.972Z,4004
2019-04-21T05:15:58.053Z,4092
2019-04-21T05:17:12.351Z,4172
2019-04-21T05:18:26.398Z,4256
2019-04-21T05:19:40.569Z,4340
2019-04-21T05:22:08.932Z,4500
2019-04-21T05:23:23.121Z,4576
2019-04-21T05:24:37.303Z,4660
2019-04-21T05:25:51.589Z,4740
2019-04-21T05:27:05.664Z,4824
2019-04-21T05:28:19.848Z,4908
2019-04-21T05:29:34.001Z,5004
2019-04-21T05:30:48.144Z,5096
2019-04-21T05:32:02.416Z,5192
2019-04-21T05:33:16.471Z,5272
2019-04-21T05:34:30.732Z,5360
2019-04-21T05:35:44.818Z,5444
2019-04-21T05:36:58.966Z,5536
2019-04-21T05:38:14.216Z,5628
2019-04-21T05:39:27.271Z,5720
2019-04-21T05:40:41.464Z,5820
2019-04-21T05:41:55.586Z,5912
2019-04-21T05:43:09.745Z,6012
2019-04-21T05:44:24.960Z,6116
2019-04-21T05:45:38.062Z,6228
2019-04-21T05:46:52.264Z,6320
2019-04-21T05:48:06.458Z,6420
2019-04-21T05:49:20.676Z,6500
2019-04-21T05:50:39.716Z,6588
2019-04-21T05:51:49.014Z,6656
2019-04-21T05:53:03.094Z,6744
2019-04-21T05:54:17.137Z,6828
2019-04-21T05:55:31.330Z,6912
2019-04-21T05:56:45.484Z,6996
2019-04-21T05:57:59.590Z,7088
2019-04-21T05:59:13.848Z,7204
2019-04-21T06:00:27.882Z,7280
2019-04-21T06:01:42.038Z,7344
2019-04-21T06:02:56.214Z,7456
2019-04-21T06:04:10.371Z,7520
2019-04-21T06:05:24.441Z,7560
2019-04-21T06:06:38.659Z,7596
2019-04-21T06:07:52.755Z,7644
2019-04-21T06:09:06.848Z,7708
2019-04-21T06:10:21.056Z,7768
2019-04-21T06:11:35.251Z,7832
2019-04-21T06:12:49.232Z,7880
2019-04-21T06:14:03.460Z,7948
2019-04-21T06:15:17.512Z,8004
2019-04-21T06:16:31.634Z,8068
2019-04-21T06:17:45.757Z,8128
2019-04-21T06:18:59.954Z,8184
2019-04-21T06:20:14.075Z,8260
2019-04-21T06:21:28.138Z,8316
2019-04-21T06:22:42.490Z,8392
2019-04-21T06:23:56.423Z,8480
2019-04-21T06:25:10.575Z,8548
2019-04-21T06:26:24.658Z,8608
2019-04-21T06:27:38.892Z,8676
2019-04-21T06:28:52.905Z,8764
2019-04-21T06:30:07.133Z,8808
2019-04-21T06:31:21.233Z,8884
2019-04-21T06:32:35.381Z,8940
2019-04-21T06:33:49.604Z,9040
2019-04-21T06:35:03.725Z,9108
2019-04-21T06:36:17.696Z,9180
2019-04-21T06:37:31.839Z,9244
2019-04-21T06:38:45.981Z,9332
2019-04-21T06:40:00.067Z,9404
2019-04-21T06:41:14.194Z,9464
2019-04-21T06:42:28.308Z,9548
2019-04-21T06:43:42.417Z,9604
2019-04-21T06:44:56.537Z,9724
2019-04-21T06:46:11.392Z,9808
2019-04-21T06:47:24.811Z,9884
2019-04-21T06:48:38.881Z,9980
2019-04-21T06:49:53.180Z,10084
2019-04-21T06:51:07.127Z,10188
2019-04-21T06:52:21.195Z,10312
2019-04-21T06:53:35.377Z,10416
2019-04-21T06:54:49.545Z,10656
2019-04-21T06:56:03.502Z,11252
2019-04-21T06:57:17.618Z,12284
2019-04-21T06:58:31.825Z,13196
2019-04-21T06:59:45.850Z,14816
2019-04-21T07:00:59.998Z,15228
2019-04-21T07:02:14.049Z,15380
2019-04-21T07:03:28.151Z,16340
2019-04-21T07:04:42.218Z,16760
2019-04-21T07:05:56.396Z,16784
2019-04-21T07:07:10.428Z,16800
2019-04-21T07:08:24.489Z,17408
2019-04-21T07:09:38.655Z,17504
2019-04-21T07:10:52.684Z,18208
2019-04-21T07:12:06.771Z,19456
2019-04-21T07:13:20.898Z,19712
2019-04-21T07:14:34.959Z,19424
2019-04-21T07:15:49.156Z,19680
2019-04-21T07:17:03.168Z,20672
2019-04-21T07:18:17.237Z,21120
2019-04-21T07:19:31.329Z,21280
2019-04-21T07:20:45.447Z,21024
2019-04-21T07:21:59.549Z,21056
2019-04-21T07:23:13.775Z,21824
2019-04-21T07:24:27.665Z,22144
2019-04-21T07:25:41.790Z,22976
2019-04-21T07:26:55.906Z,21792
2019-04-21T07:28:09.929Z,20096
2019-04-21T07:29:24.027Z,21344
2019-04-21T07:30:38.142Z,23840
2019-04-21T07:31:52.195Z,24512
2019-04-21T07:33:06.498Z,25056
2019-04-21T07:34:20.524Z,26176
2019-04-21T07:35:34.468Z,26688
2019-04-21T07:36:50.137Z,26368
2019-04-21T07:38:02.620Z,26720
2019-04-21T07:39:16.702Z,28512
2019-04-21T07:40:30.887Z,26848
2019-04-21T07:42:59.061Z,28512
2019-04-21T07:44:13.199Z,31136
2019-04-21T07:45:27.116Z,32032
2019-04-21T07:46:41.400Z,32256
2019-04-21T07:47:55.353Z,31872
2019-04-21T07:49:09.296Z,30720
2019-04-21T07:50:23.387Z,31392
2019-04-21T07:51:37.469Z,34112
2019-04-21T07:52:51.653Z,36128
2019-04-21T07:54:05.762Z,36896
2019-04-21T07:55:19.695Z,38112
2019-04-21T07:56:33.695Z,37120
2019-04-21T07:57:47.718Z,36736
2019-04-21T07:59:01.949Z,36352
2019-04-21T08:00:15.910Z,36576
2019-04-21T08:01:29.895Z,37120
2019-04-21T08:02:43.982Z,37472
2019-04-21T08:03:58.032Z,40128
2019-04-21T08:05:12.109Z,41856
2019-04-21T08:06:26.188Z,41504
2019-04-21T08:07:40.345Z,42208
2019-04-21T08:08:54.303Z,43200
2019-04-21T08:10:08.372Z,42912
2019-04-21T08:11:22.434Z,43392
2019-04-21T08:12:36.657Z,44512
2019-04-21T08:13:50.663Z,43008
2019-04-21T08:15:04.712Z,44864
2019-04-21T08:16:18.651Z,47072
2019-04-21T08:17:32.709Z,47328
2019-04-21T08:18:46.842Z,45824
2019-04-21T08:20:00.831Z,43136
2019-04-21T08:21:14.889Z,40384
2019-04-21T08:22:28.917Z,41440
2019-04-21T08:23:42.986Z,46016
2019-04-21T08:24:57.113Z,47008
2019-04-21T08:26:11.132Z,46944
2019-04-21T08:27:25.187Z,48000
2019-04-21T08:28:39.262Z,48576
2019-04-21T08:29:53.302Z,49504
2019-04-21T08:31:07.484Z,50976
2019-04-21T08:32:21.724Z,51776
2019-04-21T08:33:35.436Z,49760
2019-04-21T08:34:49.463Z,50720
2019-04-21T08:36:03.529Z,53504
2019-04-21T08:38:31.625Z,55232
2019-04-21T08:39:45.638Z,53760
2019-04-21T08:40:59.790Z,51168
2019-04-21T08:42:13.751Z,47936
2019-04-21T08:43:27.839Z,51264
2019-04-21T08:44:41.823Z,53568
2019-04-21T08:45:55.858Z,55232
2019-04-21T08:47:09.943Z,53376
2019-04-21T08:48:24.023Z,52832
2019-04-21T08:49:38.004Z,53376
2019-04-21T08:50:52.032Z,53504
2019-04-21T08:52:06.094Z,54176
2019-04-21T08:53:20.178Z,56224
2019-04-21T08:54:34.145Z,57536
2019-04-21T08:55:48.455Z,58208
2019-04-21T08:57:02.279Z,58624
2019-04-21T08:58:16.265Z,59552
2019-04-21T08:59:30.310Z,59296
2019-04-21T09:00:44.398Z,59616
2019-04-21T09:01:58.468Z,57952
2019-04-21T09:03:12.438Z,58208
2019-04-21T09:04:26.502Z,59072
2019-04-21T09:05:43.098Z,59808
2019-04-21T09:06:54.560Z,60384
2019-04-21T09:08:08.589Z,63104
2019-04-21T09:09:22.613Z,63680
2019-04-21T09:10:36.690Z,66208
2019-04-21T09:11:50.947Z,66976
2019-04-21T09:13:04.705Z,65600
2019-04-21T09:14:18.771Z,66144
2019-04-21T09:15:32.748Z,65664
2019-04-21T09:16:46.805Z,66656
2019-04-21T09:18:00.843Z,66048
2019-04-21T09:19:14.826Z,67328
2019-04-21T09:20:28.913Z,66496
2019-04-21T09:21:42.888Z,64832
2019-04-21T09:22:56.913Z,67456
2019-04-21T09:24:10.930Z,67712
2019-04-21T09:25:25.072Z,69888
2019-04-21T09:26:39.238Z,69984
2019-04-21T09:27:53.020Z,69280
2019-04-21T09:29:07.040Z,71200
2019-04-21T09:30:21.075Z,72704
2019-04-21T09:31:35.160Z,72288
2019-04-21T09:32:49.095Z,75072
2019-04-21T09:34:03.148Z,73056
2019-04-21T09:35:17.157Z,73568
2019-04-21T09:36:31.189Z,74816
2019-04-21T09:37:45.212Z,73568
2019-04-21T09:38:59.284Z,73664
2019-04-21T09:40:13.225Z,78336
2019-04-21T09:41:27.261Z,76352
2019-04-21T09:42:41.273Z,79968
2019-04-21T09:43:55.571Z,78784
2019-04-21T09:45:09.301Z,76096
2019-04-21T09:46:23.432Z,74432
2019-04-21T09:47:37.337Z,76928
2019-04-21T09:48:51.432Z,75872
2019-04-21T09:50:05.650Z,75104
2019-04-21T09:51:19.448Z,78304
2019-04-21T09:52:34.006Z,76544
2019-04-21T09:53:47.456Z,77088
2019-04-21T09:55:01.476Z,80800
2019-04-21T09:56:15.644Z,81248
2019-04-21T09:57:29.532Z,80064
2019-04-21T09:58:43.551Z,81344
2019-04-21T09:59:57.514Z,78368
2019-04-21T10:01:11.520Z,78624
2019-04-21T10:02:25.647Z,77600
2019-04-21T10:03:39.612Z,75072
2019-04-21T10:04:53.624Z,72640
2019-04-21T10:06:07.583Z,74624
2019-04-21T10:07:21.788Z,77376
2019-04-21T10:08:35.628Z,79296
2019-04-21T10:09:49.689Z,83232
2019-04-21T10:11:03.698Z,83648
2019-04-21T10:12:17.654Z,82688
2019-04-21T10:13:31.790Z,82272
2019-04-21T10:14:45.706Z,82272
2019-04-21T10:15:59.922Z,83392
2019-04-21T10:17:13.728Z,82880
2019-04-21T10:18:27.746Z,86208
2019-04-21T10:19:41.791Z,87520
2019-04-21T10:20:55.784Z,89440
2019-04-21T10:22:09.796Z,85760
2019-04-21T10:23:23.789Z,84608
2019-04-21T10:24:37.857Z,82144
2019-04-21T10:25:54.336Z,85216
2019-04-21T10:27:05.807Z,87488
2019-04-21T10:28:19.833Z,86464
2019-04-21T10:29:33.836Z,88192
2019-04-21T10:30:49.103Z,90272
2019-04-21T10:32:01.889Z,93568
2019-04-21T10:33:15.829Z,91552
2019-04-21T10:34:29.819Z,92704
2019-04-21T10:35:43.824Z,92736
2019-04-21T10:36:57.857Z,95168
2019-04-21T10:38:11.869Z,92672
2019-04-21T10:39:25.845Z,91744
2019-04-21T10:40:39.861Z,92576
2019-04-21T10:41:53.879Z,89920
2019-04-21T10:43:07.902Z,92544
2019-04-21T10:44:21.935Z,88480
2019-04-21T10:45:35.974Z,94080
2019-04-21T10:46:49.904Z,96320
2019-04-21T10:48:03.935Z,96928
2019-04-21T10:49:17.925Z,95392
2019-04-21T10:50:31.947Z,100864
2019-04-21T10:51:45.961Z,100064
2019-04-21T10:53:00.025Z,99424
2019-04-21T10:54:14.058Z,99904
2019-04-21T10:55:27.984Z,99296
2019-04-21T10:56:42.010Z,97088
2019-04-21T10:57:56.014Z,98656
2019-04-21T10:59:10.017Z,96352
2019-04-21T11:00:24.116Z,96960
2019-04-21T11:01:38.140Z,99776
2019-04-21T11:02:52.076Z,94240
2019-04-21T11:04:06.040Z,100128
2019-04-21T11:06:34.058Z,98016
2019-04-21T11:07:50.486Z,93440
2019-04-21T11:09:02.112Z,97760
2019-04-21T11:10:16.122Z,95872
2019-04-21T11:11:30.232Z,100832
2019-04-21T11:12:44.204Z,102240
2019-04-21T11:13:58.213Z,104160
2019-04-21T11:15:12.257Z,99712
2019-04-21T11:16:26.262Z,103040
2019-04-21T11:17:40.216Z,95360
2019-04-21T11:18:54.397Z,100704
2019-04-21T11:20:08.325Z,101536
2019-04-21T11:21:22.439Z,103616
2019-04-21T11:22:36.324Z,100096
2019-04-21T11:23:50.373Z,101472
2019-04-21T11:25:04.323Z,99936
2019-04-21T11:26:18.341Z,105408
2019-04-21T11:27:32.363Z,105792
2019-04-21T11:28:46.388Z,107360
2019-04-21T11:30:00.452Z,105376
2019-04-21T11:31:14.411Z,104672
2019-04-21T11:32:28.515Z,105632
2019-04-21T11:33:42.488Z,101216
2019-04-21T11:34:56.475Z,103424
2019-04-21T11:36:14.863Z,102368
2019-04-21T11:37:24.585Z,102752
2019-04-21T11:38:38.554Z,102016
2019-04-21T11:39:52.577Z,103872
2019-04-21T11:41:06.684Z,108256
2019-04-21T11:42:20.665Z,103168
2019-04-21T11:43:34.661Z,104416
2019-04-21T11:44:48.690Z,101408
2019-04-21T11:46:02.699Z,104864
2019-04-21T11:47:16.722Z,100480
2019-04-21T11:48:30.815Z,105248
2019-04-21T11:49:44.829Z,99232
2019-04-21T11:51:04.265Z,102944
2019-04-21T11:52:12.819Z,98784
2019-04-21T11:53:26.910Z,97728
2019-04-21T11:54:40.946Z,99584
2019-04-21T11:55:57.729Z,98944
2019-04-21T11:57:08.920Z,101760
2019-04-21T11:58:22.915Z,105568
2019-04-21T11:59:36.931Z,106592
2019-04-21T12:00:50.989Z,105248
2019-04-21T12:02:04.999Z,100736
2019-04-21T12:03:19.037Z,102144
2019-04-21T12:04:33.070Z,101696
2019-04-21T12:07:01.185Z,104032
2019-04-21T12:09:29.153Z,109184
2019-04-21T12:10:43.239Z,108416
2019-04-21T12:11:57.293Z,111520
2019-04-21T12:13:11.248Z,108352
2019-04-21T12:14:25.401Z,112864
2019-04-21T12:15:39.331Z,111168
2019-04-21T12:16:53.420Z,108032
2019-04-21T12:18:07.407Z,108032
2019-04-21T12:19:21.493Z,107712
2019-04-21T12:20:35.606Z,109504
2019-04-21T12:21:49.471Z,107936
2019-04-21T12:23:03.605Z,109216
2019-04-21T12:24:17.516Z,108032
2019-04-21T12:25:31.510Z,105120
2019-04-21T12:26:45.557Z,107744
2019-04-21T12:27:59.573Z,100800
2019-04-21T12:29:13.668Z,98752
2019-04-21T12:30:27.620Z,96384
2019-04-21T12:31:41.635Z,96160
2019-04-21T12:32:55.704Z,88608
2019-04-21T12:34:09.688Z,91200
2019-04-21T12:35:23.745Z,96608
2019-04-21T12:36:37.788Z,102624
2019-04-21T12:37:51.869Z,106432
2019-04-21T12:39:05.859Z,108672
2019-04-21T12:40:19.870Z,110720
2019-04-21T12:41:33.868Z,111552
2019-04-21T12:42:47.904Z,107552
2019-04-21T12:44:01.932Z,111872
2019-04-21T12:45:16.000Z,112544
2019-04-21T12:46:29.999Z,110912
2019-04-21T12:47:44.017Z,111072
2019-04-21T12:48:58.038Z,111040
2019-04-21T12:50:12.145Z,114592
2019-04-21T12:51:26.118Z,113696
2019-04-21T12:52:40.217Z,110912
2019-04-21T12:53:54.162Z,106560
2019-04-21T12:55:08.198Z,107232
2019-04-21T12:56:22.600Z,106240
2019-04-21T12:57:36.365Z,106912
2019-04-21T12:58:50.409Z,105120
2019-04-21T13:01:18.420Z,107840
2019-04-21T13:02:32.427Z,108544
2019-04-21T13:03:46.421Z,108128
2019-04-21T13:05:00.511Z,105568
2019-04-21T13:06:14.609Z,109984
2019-04-21T13:07:28.637Z,108960
2019-04-21T13:09:56.592Z,109408
2019-04-21T13:11:10.689Z,107392
2019-04-21T13:12:24.678Z,104544
2019-04-21T13:13:38.738Z,104832
2019-04-21T13:14:52.825Z,101632
2019-04-21T13:16:06.832Z,97376
2019-04-21T13:17:20.820Z,98944
2019-04-21T13:18:34.851Z,98176
2019-04-21T13:19:48.907Z,97280
2019-04-21T13:21:03.097Z,106848
2019-04-21T13:22:16.967Z,105088
2019-04-21T13:23:31.008Z,108512
2019-04-21T13:24:45.039Z,104384
2019-04-21T13:25:59.216Z,102592
2019-04-21T13:27:13.109Z,99744
2019-04-21T13:28:27.169Z,99520
2019-04-21T13:29:41.217Z,100704
2019-04-21T13:30:55.231Z,104256
2019-04-21T13:32:09.275Z,104544
2019-04-21T13:33:23.335Z,109216
2019-04-21T13:34:37.348Z,110400
2019-04-21T13:35:51.410Z,108288
2019-04-21T13:37:05.577Z,103680
2019-04-21T13:38:19.465Z,103840
2019-04-21T13:39:33.574Z,101888
2019-04-21T13:40:47.531Z,102848
2019-04-21T13:42:01.565Z,103488
2019-04-21T13:43:15.604Z,101472
2019-04-21T13:44:29.731Z,101056
2019-04-21T13:45:43.656Z,99488
2019-04-21T13:46:57.693Z,100256
2019-04-21T13:48:11.845Z,106240
2019-04-21T13:49:25.919Z,105376
2019-04-21T13:50:39.856Z,106016
2019-04-21T13:51:53.873Z,100416
2019-04-21T13:53:07.823Z,99680
2019-04-21T13:54:21.865Z,101600
2019-04-21T13:55:35.880Z,102688
2019-04-21T13:56:50.066Z,104192
2019-04-21T13:58:03.954Z,106912
2019-04-21T13:59:18.044Z,108704
2019-04-21T14:00:31.991Z,106880
2019-04-21T14:01:46.016Z,107264
2019-04-21T14:03:00.072Z,98816
2019-04-21T14:04:14.099Z,99264
2019-04-21T14:05:28.184Z,94048
2019-04-21T14:06:42.163Z,97152
2019-04-21T14:07:56.212Z,97472
2019-04-21T14:09:16.253Z,101024
2019-04-21T14:10:24.270Z,100896
2019-04-21T14:11:38.300Z,101536
2019-04-21T14:12:52.341Z,97376
2019-04-21T14:14:06.470Z,97696
2019-04-21T14:15:20.446Z,97024
2019-04-21T14:16:34.576Z,97760
2019-04-21T14:17:48.462Z,100096
2019-04-21T14:19:02.491Z,94016
2019-04-21T14:20:16.525Z,97152
2019-04-21T14:21:31.397Z,96640
2019-04-21T14:22:44.661Z,92288
2019-04-21T14:23:58.777Z,93312
2019-04-21T14:25:12.698Z,90272
2019-04-21T14:26:26.746Z,91072
2019-04-21T14:27:40.826Z,89376
2019-04-21T14:30:08.885Z,90464
2019-04-21T14:31:22.888Z,90432
2019-04-21T14:32:36.929Z,88864
2019-04-21T14:33:50.965Z,92032
2019-04-21T14:35:05.061Z,87904
2019-04-21T14:36:19.027Z,86208
2019-04-21T14:37:33.249Z,84512
2019-04-21T14:38:47.137Z,86592
2019-04-21T14:40:01.150Z,88192
2019-04-21T14:41:15.179Z,89408
2019-04-21T14:43:43.383Z,83296
2019-04-21T14:44:57.546Z,83744
2019-04-21T14:46:11.344Z,88416
2019-04-21T14:47:25.374Z,86688
2019-04-21T14:48:39.581Z,83008
2019-04-21T14:49:53.534Z,83936
2019-04-21T14:51:07.632Z,83680
2019-04-21T14:52:21.685Z,83680
2019-04-21T14:53:35.585Z,80608
2019-04-21T14:54:49.662Z,78688
2019-04-21T14:56:03.679Z,79008
2019-04-21T14:57:17.747Z,80096
2019-04-21T14:58:31.818Z,79552
2019-04-21T14:59:45.841Z,80160
2019-04-21T15:00:59.870Z,82592
2019-04-21T15:02:13.919Z,80288
2019-04-21T15:03:28.640Z,79968
2019-04-21T15:04:42.055Z,79072
2019-04-21T15:05:56.095Z,79264
2019-04-21T15:07:10.150Z,80224
2019-04-21T15:08:24.187Z,81248
2019-04-21T15:09:38.210Z,77984
2019-04-21T15:10:52.252Z,74976
2019-04-21T15:12:06.313Z,77536
2019-04-21T15:13:20.443Z,76832
2019-04-21T15:14:34.373Z,77152
2019-04-21T15:15:48.428Z,77312
2019-04-21T15:17:02.572Z,77408
2019-04-21T15:18:16.538Z,75456
2019-04-21T15:19:30.588Z,68192
2019-04-21T15:21:58.746Z,65984
2019-04-21T15:23:12.706Z,70752
2019-04-21T15:24:26.753Z,69344
2019-04-21T15:25:42.019Z,65120
2019-04-21T15:26:54.861Z,69408
2019-04-21T15:28:08.925Z,70432
2019-04-21T15:29:22.954Z,66208
2019-04-21T15:30:37.072Z,67744
2019-04-21T15:31:51.117Z,69792
2019-04-21T15:33:05.233Z,67392
2019-04-21T15:34:19.299Z,63136
2019-04-21T15:35:33.240Z,63584
2019-04-21T15:36:47.917Z,60544
2019-04-21T15:38:01.363Z,48320
2019-04-21T15:39:15.461Z,33952
2019-04-21T15:40:29.494Z,26496
2019-04-21T15:41:43.542Z,24384
2019-04-21T15:42:57.594Z,23584
2019-04-21T15:44:11.637Z,23488
2019-04-21T15:45:25.730Z,23616
2019-04-21T15:46:39.777Z,23648
2019-04-21T15:47:53.840Z,23232
2019-04-21T15:49:07.874Z,23008
2019-04-21T15:50:21.948Z,23296
2019-04-21T15:51:35.997Z,23520
2019-04-21T15:52:50.043Z,22944
2019-04-21T15:54:04.095Z,22560
2019-04-21T15:55:18.175Z,22464
2019-04-21T15:56:32.506Z,22560
2019-04-21T15:57:46.284Z,22592
2019-04-21T15:59:00.350Z,22592
2019-04-21T16:00:14.427Z,22432
2019-04-21T16:02:42.691Z,22400
2019-04-21T16:03:56.538Z,22464
2019-04-21T16:05:10.617Z,23040
2019-04-21T16:06:24.646Z,24384
2019-04-21T16:07:38.723Z,27456
2019-04-21T16:08:54.213Z,32000
2019-04-21T16:10:06.824Z,49888
2019-04-21T16:11:20.860Z,67520
2019-04-21T16:12:34.898Z,65920
2019-04-21T16:13:49.049Z,66400
2019-04-21T16:15:03.045Z,60480
2019-04-21T16:16:17.108Z,46112
2019-04-21T16:17:31.121Z,44352
2019-04-21T16:18:45.226Z,51264
2019-04-21T16:19:59.277Z,46304
2019-04-21T16:21:13.342Z,49184
2019-04-21T16:22:27.485Z,49952
2019-04-21T16:23:41.556Z,46144
2019-04-21T16:24:55.557Z,41088
2019-04-21T16:26:09.627Z,35776
2019-04-21T16:27:23.776Z,34176
2019-04-21T16:28:37.761Z,40448
2019-04-21T16:29:51.887Z,40032
2019-04-21T16:31:05.879Z,38304
2019-04-21T16:32:19.955Z,32128
2019-04-21T16:33:34.110Z,27680
2019-04-21T16:34:48.116Z,32352
2019-04-21T16:36:02.148Z,37536
2019-04-21T16:37:16.234Z,37248
2019-04-21T16:38:30.313Z,30976
2019-04-21T16:39:44.388Z,29600
2019-04-21T16:40:58.557Z,28608
2019-04-21T16:42:12.533Z,25792
2019-04-21T16:43:26.632Z,26272
2019-04-21T16:44:40.712Z,31424